Time;durP1;ratioP1;P1;durP2;ratioP2;P2;SDS_P1;SDS_P2;PMS_P1;PMS_P2;Temp;Humidity;BMP_temperature;BMP_pressure;BME280_temperature;BME280_humidity;BME280_pressure;Samples;Min_cycle;Max_cycle;Signal;HPM_P1;HPM_P2
2021/09/23 00:04:02;;;;;;;6.25;3.20;;;14.80;79.10;;;;;;10108121;28;20036;-57
2021/09/23 00:08:54;;;;;;;7.18;2.83;;;14.80;79.00;;;;;;10108214;28;20138;-54
2021/09/23 00:13:45;;;;;;;5.03;2.83;;;14.70;79.70;;;;;;10097235;28;20445;-56
2021/09/23 00:18:36;;;;;;;5.57;3.60;;;14.80;79.70;;;;;;10117207;28;20142;-51
2021/09/23 00:23:26;;;;;;;5.63;3.20;;;14.50;79.90;;;;;;10114642;28;20048;-55
2021/09/23 00:28:17;;;;;;;4.05;3.30;;;14.50;80.50;;;;;;10115395;28;20041;-55
2021/09/23 00:33:08;;;;;;;3.53;2.75;;;14.50;80.20;;;;;;10093952;28;20364;-51
2021/09/23 00:37:58;;;;;;;6.53;3.13;;;14.40;80.70;;;;;;10108730;28;20044;-56
2021/09/23 00:42:49;;;;;;;5.28;3.30;;;14.50;80.30;;;;;;10092630;28;20123;-58
2021/09/23 00:47:40;;;;;;;6.28;3.20;;;14.30;80.40;;;;;;10114500;28;20454;-57
2021/09/23 00:52:31;;;;;;;5.40;3.45;;;14.40;80.30;;;;;;10115280;28;20216;-55
2021/09/23 00:57:22;;;;;;;6.53;3.38;;;14.40;80.60;;;;;;10117371;28;20410;-51
2021/09/23 01:02:13;;;;;;;7.88;3.10;;;14.40;80.60;;;;;;10119139;28;20534;-54
2021/09/23 01:07:04;;;;;;;5.95;3.22;;;14.40;80.80;;;;;;10115879;28;20025;-50
2021/09/23 01:11:54;;;;;;;6.25;3.58;;;14.30;80.90;;;;;;10125728;28;20041;-58
2021/09/23 01:16:45;;;;;;;5.95;3.30;;;14.20;81.10;;;;;;10107388;28;20127;-53
2021/09/23 01:21:36;;;;;;;7.47;3.53;;;14.20;81.20;;;;;;10119249;28;20048;-56
2021/09/23 01:26:29;;;;;;;4.95;3.28;;;14.10;81.30;;;;;;10116323;28;20028;-54
2021/09/23 01:31:21;;;;;;;5.60;3.65;;;14.20;81.10;;;;;;10102025;28;20481;-51
2021/09/23 01:36:12;;;;;;;6.05;3.40;;;14.10;81.60;;;;;;10126789;28;20048;-62
2021/09/23 01:41:02;;;;;;;5.47;3.47;;;14.10;81.30;;;;;;10098347;28;20416;-60
2021/09/23 01:45:53;;;;;;;5.20;3.13;;;14.00;81.40;;;;;;10113171;28;20033;-57
2021/09/23 01:50:44;;;;;;;5.53;3.35;;;14.10;81.70;;;;;;10092168;28;20025;-55
2021/09/23 01:55:35;;;;;;;6.63;3.25;;;14.00;81.80;;;;;;10108468;28;20833;-56
2021/09/23 02:00:25;;;;;;;7.63;3.83;;;14.00;81.80;;;;;;10119654;28;20021;-56
2021/09/23 02:05:17;;;;;;;5.50;3.50;;;14.00;82.00;;;;;;10115880;28;20056;-56
2021/09/23 02:10:09;;;;;;;5.13;3.63;;;14.00;81.90;;;;;;10109658;28;20394;-55
2021/09/23 02:15:00;;;;;;;5.95;3.33;;;14.00;81.90;;;;;;10120177;28;20039;-53
2021/09/23 02:19:50;;;;;;;8.23;4.50;;;14.00;82.20;;;;;;10116058;28;20415;-53
2021/09/23 02:24:41;;;;;;;7.28;4.03;;;13.90;82.30;;;;;;10118946;28;20040;-55
2021/09/23 02:29:34;;;;;;;8.70;3.75;;;13.90;82.20;;;;;;10115204;28;20592;-58
2021/09/23 02:34:25;;;;;;;6.38;4.05;;;13.90;82.30;;;;;;10115305;28;20059;-52
2021/09/23 02:39:15;;;;;;;7.72;4.22;;;13.70;82.90;;;;;;10096670;28;20064;-57
2021/09/23 02:44:06;;;;;;;5.22;3.42;;;13.70;83.00;;;;;;10119323;28;20067;-54
2021/09/23 02:48:57;;;;;;;5.82;3.83;;;13.70;82.90;;;;;;10120654;28;20639;-52
2021/09/23 02:53:47;;;;;;;7.38;3.78;;;13.60;82.80;;;;;;10111856;28;20032;-60
2021/09/23 02:58:38;;;;;;;9.60;4.75;;;13.60;82.90;;;;;;10111953;28;20464;-55
2021/09/23 03:03:28;;;;;;;6.25;4.45;;;13.50;82.80;;;;;;10116687;28;20047;-59
2021/09/23 03:08:21;;;;;;;7.18;4.43;;;13.50;83.10;;;;;;10088662;28;20090;-53
2021/09/23 03:13:12;;;;;;;8.50;4.80;;;13.40;83.20;;;;;;10118661;28;20029;-55
2021/09/23 03:18:02;;;;;;;7.90;4.90;;;13.30;83.50;;;;;;10117691;28;20035;-52
2021/09/23 03:22:55;;;;;;;10.85;4.72;;;13.20;83.90;;;;;;10106106;28;20403;-53
2021/09/23 03:27:45;;;;;;;7.88;4.35;;;13.20;83.70;;;;;;10119256;28;20339;-50
2021/09/23 03:32:36;;;;;;;7.30;4.50;;;13.20;83.90;;;;;;10120823;28;20039;-50
2021/09/23 03:37:27;;;;;;;5.93;4.03;;;13.20;84.00;;;;;;10116790;28;20064;-52
2021/09/23 03:42:17;;;;;;;9.45;4.38;;;13.20;84.00;;;;;;10109192;28;20131;-56
2021/09/23 03:47:08;;;;;;;7.68;4.43;;;13.10;84.20;;;;;;10099249;28;20032;-54
2021/09/23 03:51:59;;;;;;;8.27;4.75;;;13.20;84.30;;;;;;10114692;28;20033;-57
2021/09/23 03:56:50;;;;;;;10.15;4.75;;;13.20;84.40;;;;;;10112239;28;20037;-57
2021/09/23 04:01:40;;;;;;;7.35;4.30;;;13.00;84.80;;;;;;10107845;28;20048;-56
2021/09/23 04:06:31;;;;;;;6.90;4.93;;;12.80;85.00;;;;;;10111883;28;20031;-59
2021/09/23 04:11:22;;;;;;;7.75;4.13;;;12.80;85.30;;;;;;10117397;28;20511;-59
2021/09/23 04:16:13;;;;;;;7.22;4.70;;;13.00;85.00;;;;;;10114683;28;20525;-60
2021/09/23 04:21:03;;;;;;;9.95;4.93;;;12.80;85.00;;;;;;10110055;28;20063;-58
2021/09/23 04:25:54;;;;;;;6.07;4.35;;;12.70;85.40;;;;;;10096048;28;20511;-57
2021/09/23 04:30:45;;;;;;;7.22;4.30;;;12.80;85.20;;;;;;10111120;28;20059;-58
2021/09/23 04:35:35;;;;;;;9.88;4.32;;;12.80;85.20;;;;;;10120996;28;20317;-59
2021/09/23 04:40:26;;;;;;;6.53;4.57;;;12.70;85.20;;;;;;10123284;28;20398;-54
2021/09/23 04:45:17;;;;;;;7.28;4.57;;;12.80;85.40;;;;;;10123501;28;20073;-53
2021/09/23 04:50:08;;;;;;;7.50;4.63;;;12.70;85.50;;;;;;10117812;28;20329;-52
2021/09/23 04:54:58;;;;;;;8.10;4.75;;;12.70;85.70;;;;;;10122541;28;20375;-54
2021/09/23 04:59:49;;;;;;;7.03;4.75;;;12.70;85.60;;;;;;10121693;28;20215;-53
2021/09/23 05:04:42;;;;;;;10.43;5.13;;;12.60;85.90;;;;;;10120251;28;20458;-51
2021/09/23 05:09:33;;;;;;;6.90;4.93;;;12.50;86.10;;;;;;10116340;28;20469;-51
2021/09/23 05:14:24;;;;;;;9.60;4.30;;;12.30;86.40;;;;;;10119397;28;20036;-55
2021/09/23 05:19:14;;;;;;;9.52;5.22;;;12.40;86.30;;;;;;10120692;28;20124;-56
2021/09/23 05:24:05;;;;;;;9.57;5.10;;;12.20;86.40;;;;;;10118621;28;20506;-53
2021/09/23 05:28:56;;;;;;;7.68;4.63;;;12.20;86.50;;;;;;10113995;28;20501;-54
2021/09/23 05:33:47;;;;;;;8.65;4.53;;;12.20;86.60;;;;;;10099367;28;20561;-55
2021/09/23 05:38:37;;;;;;;5.97;4.20;;;12.30;86.50;;;;;;10120805;28;20523;-56
2021/09/23 05:43:28;;;;;;;9.45;5.22;;;12.30;86.60;;;;;;10117521;28;20040;-55
2021/09/23 05:48:19;;;;;;;10.75;4.85;;;12.30;86.80;;;;;;10117291;28;20143;-52
2021/09/23 05:53:10;;;;;;;7.35;4.65;;;12.30;86.80;;;;;;10116533;28;20025;-53
2021/09/23 05:58:01;;;;;;;8.80;5.60;;;12.30;86.80;;;;;;10122955;28;20452;-52
2021/09/23 06:02:52;;;;;;;11.23;5.78;;;12.40;86.70;;;;;;10113530;28;20056;-58
2021/09/23 06:07:44;;;;;;;10.13;4.88;;;12.50;86.80;;;;;;10124626;28;20415;-56
2021/09/23 06:12:35;;;;;;;9.18;4.65;;;12.50;86.70;;;;;;10118317;28;20028;-52
2021/09/23 06:17:26;;;;;;;9.68;5.25;;;12.50;86.80;;;;;;10111596;28;20051;-56
2021/09/23 06:22:17;;;;;;;7.90;5.03;;;12.60;86.80;;;;;;10101845;28;20240;-57
2021/09/23 06:27:07;;;;;;;9.50;4.85;;;12.50;86.90;;;;;;10118904;28;20448;-55
2021/09/23 06:31:58;;;;;;;7.78;4.63;;;12.40;87.40;;;;;;10112213;28;20056;-58
2021/09/23 06:36:49;;;;;;;6.13;4.45;;;12.40;87.40;;;;;;10117559;28;20020;-60
2021/09/23 06:41:40;;;;;;;7.57;4.57;;;12.30;87.50;;;;;;10113347;28;20507;-55
2021/09/23 06:46:31;;;;;;;10.38;5.07;;;12.30;87.60;;;;;;10117480;28;20473;-56
2021/09/23 06:51:22;;;;;;;9.77;4.53;;;12.30;87.80;;;;;;10114955;28;20111;-57
2021/09/23 06:56:12;;;;;;;9.35;5.03;;;12.40;87.70;;;;;;10110700;28;20064;-55
2021/09/23 07:01:03;;;;;;;8.77;4.95;;;12.40;87.80;;;;;;10113173;28;20386;-52
2021/09/23 07:05:54;;;;;;;10.52;5.43;;;12.50;87.90;;;;;;10103227;28;20499;-57
2021/09/23 07:10:45;;;;;;;10.45;6.30;;;12.60;87.60;;;;;;10110135;28;20510;-55
2021/09/23 07:15:36;;;;;;;10.15;5.90;;;12.60;87.90;;;;;;10116904;28;20089;-54
2021/09/23 07:20:27;;;;;;;12.52;6.43;;;12.60;88.10;;;;;;10114469;28;20031;-58
2021/09/23 07:25:23;;;;;;;11.00;6.45;;;12.60;88.30;;;;;;10112287;28;20111;-56
2021/09/23 07:30:14;;;;;;;8.90;5.90;;;12.70;88.60;;;;;;10112387;28;20112;-55
2021/09/23 07:35:05;;;;;;;13.02;5.97;;;12.70;88.70;;;;;;10110432;28;20409;-59
2021/09/23 07:39:55;;;;;;;13.10;6.57;;;12.90;88.50;;;;;;10119480;28;20266;-58
2021/09/23 07:44:47;;;;;;;14.77;8.40;;;13.00;88.50;;;;;;10109372;28;20040;-54
2021/09/23 07:49:38;;;;;;;14.02;7.22;;;13.20;88.30;;;;;;10111198;28;20055;-53
2021/09/23 07:54:28;;;;;;;10.38;6.43;;;13.50;87.80;;;;;;10111009;28;20062;-57
2021/09/23 07:59:19;;;;;;;14.93;7.07;;;13.40;88.20;;;;;;10113364;28;20261;-56
2021/09/23 08:04:10;;;;;;;11.13;6.97;;;13.60;87.90;;;;;;10121741;28;20118;-55
2021/09/23 08:09:00;;;;;;;11.25;6.13;;;13.80;88.10;;;;;;10127846;28;20035;-57
2021/09/23 08:13:51;;;;;;;11.85;6.82;;;14.00;87.60;;;;;;10124655;28;20562;-53
2021/09/23 08:18:42;;;;;;;13.85;6.70;;;14.10;87.30;;;;;;10123844;28;20094;-56
2021/09/23 08:23:33;;;;;;;10.70;6.13;;;14.20;87.30;;;;;;10126785;28;20063;-56
2021/09/23 08:28:26;;;;;;;12.70;6.70;;;14.40;87.30;;;;;;10122399;28;20119;-56
2021/09/23 08:33:17;;;;;;;9.18;6.80;;;14.50;87.10;;;;;;10125259;28;20032;-58
2021/09/23 08:38:08;;;;;;;13.82;5.70;;;14.60;86.90;;;;;;10127813;28;20391;-58
2021/09/23 08:43:01;;;;;;;9.27;6.05;;;14.70;87.10;;;;;;10129278;28;20459;-59
2021/09/23 08:47:51;;;;;;;11.85;7.60;;;14.80;86.90;;;;;;10111616;28;20123;-56
2021/09/23 08:52:43;;;;;;;8.93;5.97;;;15.00;86.60;;;;;;10129417;28;20865;-56
2021/09/23 08:57:34;;;;;;;9.75;6.05;;;15.10;86.60;;;;;;10121648;28;20045;-53
2021/09/23 09:02:27;;;;;;;9.98;5.95;;;15.10;86.60;;;;;;10123407;28;20048;-56
2021/09/23 09:07:28;;;;;;;11.52;6.28;;;15.20;86.70;;;;;;10127632;28;20037;-59
2021/09/23 09:12:19;;;;;;;11.45;5.63;;;15.40;86.40;;;;;;10121551;28;20101;-54
2021/09/23 09:17:10;;;;;;;11.73;5.65;;;15.60;85.90;;;;;;10101898;28;20031;-58
2021/09/23 09:22:18;;;;;;;7.97;4.43;;;15.70;85.70;;;;;;10118585;28;20479;-55
2021/09/23 09:27:29;;;;;;;10.63;6.43;;;15.80;85.90;;;;;;10118382;28;20533;-57
2021/09/23 09:32:46;;;;;;;12.30;5.90;;;16.00;85.70;;;;;;10116797;28;20102;-55
2021/09/23 09:37:39;;;;;;;8.45;5.75;;;16.20;85.30;;;;;;10117117;28;20024;-61
2021/09/23 09:42:30;;;;;;;8.38;5.47;;;16.30;85.20;;;;;;10116006;28;20133;-60
2021/09/23 09:47:29;;;;;;;7.05;4.82;;;16.50;85.10;;;;;;10097815;28;20222;-57
2021/09/23 09:52:30;;;;;;;9.75;5.03;;;16.70;84.60;;;;;;10111230;28;20040;-57
2021/09/23 09:57:25;;;;;;;8.10;5.40;;;16.90;84.20;;;;;;10116179;28;20101;-59
2021/09/23 10:02:16;;;;;;;9.57;6.28;;;17.00;84.20;;;;;;10121009;28;20063;-58
2021/09/23 10:07:08;;;;;;;10.88;5.32;;;17.00;84.10;;;;;;10114544;28;20166;-60
2021/09/23 10:12:00;;;;;;;8.15;4.65;;;17.10;83.70;;;;;;10109001;28;20040;-57
2021/09/23 10:16:51;;;;;;;8.40;4.97;;;17.40;83.00;;;;;;10098092;28;20032;-54
2021/09/23 10:21:42;;;;;;;7.63;5.13;;;17.40;83.00;;;;;;10111414;28;20492;-56
2021/09/23 10:26:35;;;;;;;9.65;5.15;;;17.40;82.80;;;;;;10109652;28;20041;-58
2021/09/23 10:31:32;;;;;;;6.50;4.15;;;17.50;82.40;;;;;;10110677;28;20226;-59
2021/09/23 10:36:22;;;;;;;10.32;4.25;;;17.50;82.10;;;;;;10112788;28;20361;-58
2021/09/23 10:41:14;;;;;;;4.97;3.42;;;17.60;81.90;;;;;;10107174;28;20078;-58
2021/09/23 10:46:04;;;;;;;6.60;3.60;;;17.80;81.30;;;;;;10097415;28;20515;-59
2021/09/23 10:50:55;;;;;;;5.30;3.78;;;17.90;80.80;;;;;;10114548;28;20036;-56
2021/09/23 10:55:46;;;;;;;4.03;2.80;;;18.00;80.30;;;;;;10118743;28;20516;-56
2021/09/23 11:00:38;;;;;;;4.60;2.80;;;18.10;79.90;;;;;;10105760;28;20056;-54
2021/09/23 11:05:30;;;;;;;4.32;2.40;;;18.20;79.40;;;;;;10118614;28;20399;-57
2021/09/23 11:10:25;;;;;;;5.20;2.30;;;18.30;79.10;;;;;;10118399;28;20086;-60
2021/09/23 11:15:19;;;;;;;4.93;2.87;;;18.40;78.60;;;;;;10118793;28;20028;-59
2021/09/23 11:20:13;;;;;;;6.00;2.83;;;18.40;78.30;;;;;;10120593;28;20035;-60
2021/09/23 11:25:08;;;;;;;4.38;2.92;;;18.70;77.60;;;;;;10124792;28;20054;-62
2021/09/23 11:29:59;;;;;;;4.50;3.00;;;18.90;77.10;;;;;;10134625;28;20396;-60
2021/09/23 11:34:59;;;;;;;4.70;2.75;;;19.00;76.80;;;;;;10127009;28;20032;-60
2021/09/23 11:39:49;;;;;;;5.20;2.63;;;19.20;76.30;;;;;;10135030;28;20540;-61
2021/09/23 11:44:42;;;;;;;4.75;2.92;;;19.40;75.70;;;;;;10134999;28;20049;-59
2021/09/23 11:49:35;;;;;;;4.55;2.75;;;19.50;75.30;;;;;;10133776;28;20029;-60
2021/09/23 11:54:26;;;;;;;4.93;3.45;;;19.80;75.00;;;;;;10134040;28;20225;-59
2021/09/23 11:59:25;;;;;;;5.57;3.38;;;20.00;74.40;;;;;;10127441;28;20112;-59
2021/09/23 12:04:16;;;;;;;4.35;2.88;;;20.10;74.10;;;;;;10135118;28;20051;-59
2021/09/23 12:09:12;;;;;;;5.03;2.50;;;20.20;73.50;;;;;;10126062;28;20044;-58
2021/09/23 12:14:07;;;;;;;2.95;1.98;;;20.30;73.40;;;;;;10113540;28;20094;-60
2021/09/23 12:18:58;;;;;;;3.90;2.42;;;20.50;72.50;;;;;;10113522;28;20035;-59
2021/09/23 12:23:57;;;;;;;3.17;2.20;;;20.70;72.20;;;;;;10125175;28;20219;-60
2021/09/23 12:28:50;;;;;;;2.92;2.25;;;21.10;71.30;;;;;;10113523;28;20111;-60
2021/09/23 12:33:55;;;;;;;4.13;2.55;;;21.60;70.90;;;;;;10116779;28;20486;-51
2021/09/23 12:38:46;;;;;;;3.78;2.40;;;22.00;70.00;;;;;;10112097;28;20057;-56
2021/09/23 12:43:37;;;;;;;8.05;2.80;;;22.10;70.50;;;;;;10118955;28;20579;-56
2021/09/23 12:48:28;;;;;;;6.47;2.20;;;22.50;70.50;;;;;;10110866;28;20376;-55
2021/09/23 12:53:18;;;;;;;5.03;2.38;;;22.90;70.30;;;;;;10117658;28;20035;-54
2021/09/23 12:58:19;;;;;;;4.43;3.45;;;23.50;70.20;;;;;;10114681;28;20067;-57
2021/09/23 13:03:13;;;;;;;3.42;2.72;;;23.80;69.10;;;;;;10111254;28;20105;-56
2021/09/23 13:08:19;;;;;;;3.38;2.50;;;24.10;70.30;;;;;;10122044;28;20036;-56
2021/09/23 13:13:10;;;;;;;3.75;3.42;;;24.60;69.00;;;;;;10111538;28;20478;-59
2021/09/23 13:18:12;;;;;;;3.78;2.75;;;25.20;69.20;;;;;;10113032;28;20132;-58
2021/09/23 13:23:05;;;;;;;4.30;2.60;;;25.90;67.20;;;;;;10116198;28;20257;-59
2021/09/23 13:27:55;;;;;;;3.72;2.75;;;26.90;66.00;;;;;;10119250;28;20773;-57
2021/09/23 13:32:48;;;;;;;4.28;2.58;;;29.20;62.40;;;;;;10126255;28;20078;-58
2021/09/23 13:37:43;;;;;;;5.18;2.25;;;31.60;57.60;;;;;;10117682;28;20024;-57
2021/09/23 13:42:34;;;;;;;2.75;2.53;;;32.90;53.70;;;;;;10114036;28;20392;-58
2021/09/23 13:47:25;;;;;;;3.77;2.17;;;33.30;51.80;;;;;;10104089;28;20679;-56
2021/09/23 13:52:15;;;;;;;3.70;2.60;;;32.90;50.60;;;;;;10117749;28;20040;-60
2021/09/23 13:57:06;;;;;;;2.90;2.27;;;31.70;50.30;;;;;;10118332;28;20133;-55
2021/09/23 14:01:57;;;;;;;3.97;2.30;;;30.80;51.70;;;;;;10110860;28;20029;-57
2021/09/23 14:06:47;;;;;;;4.40;2.57;;;30.40;52.00;;;;;;10110641;28;20029;-59
2021/09/23 14:11:38;;;;;;;4.73;2.10;;;30.40;51.60;;;;;;10116641;28;20511;-56
2021/09/23 14:16:28;;;;;;;3.20;2.78;;;30.20;50.80;;;;;;10113487;28;20500;-53
2021/09/23 14:21:19;;;;;;;3.88;2.38;;;30.10;50.70;;;;;;10115635;28;20090;-58
2021/09/23 14:26:10;;;;;;;2.17;1.90;;;30.20;49.80;;;;;;10099236;28;20395;-59
2021/09/23 14:31:00;;;;;;;3.90;2.20;;;30.80;48.40;;;;;;10119780;28;20032;-59
2021/09/23 14:35:51;;;;;;;3.58;2.53;;;31.00;47.40;;;;;;10122632;28;20109;-58
2021/09/23 14:40:42;;;;;;;2.10;1.90;;;31.40;46.40;;;;;;10113202;28;20028;-56
2021/09/23 14:45:33;;;;;;;2.92;2.00;;;32.30;45.30;;;;;;10113593;28;20501;-53
2021/09/23 14:50:23;;;;;;;7.45;2.78;;;33.10;43.80;;;;;;10101462;28;20256;-59
2021/09/23 14:55:14;;;;;;;4.78;2.55;;;34.00;42.50;;;;;;10118311;28;20100;-56
2021/09/23 15:00:08;;;;;;;4.20;2.58;;;35.10;41.10;;;;;;10111332;28;20547;-53
2021/09/23 15:04:59;;;;;;;3.08;1.90;;;35.90;39.60;;;;;;10107718;28;20048;-56
2021/09/23 15:09:50;;;;;;;2.33;2.13;;;35.40;39.10;;;;;;10114176;28;20086;-56
2021/09/23 15:14:40;;;;;;;2.38;2.08;;;35.10;38.60;;;;;;10114489;28;20494;-54
2021/09/23 15:19:31;;;;;;;4.95;3.00;;;35.30;38.20;;;;;;10114893;28;20062;-56
2021/09/23 15:24:22;;;;;;;3.88;2.10;;;36.00;37.40;;;;;;10114502;28;20518;-55
2021/09/23 15:29:13;;;;;;;3.72;2.00;;;36.30;36.50;;;;;;10114264;28;20056;-57
2021/09/23 15:34:04;;;;;;;3.58;2.47;;;36.50;35.90;;;;;;10111278;28;20096;-59
2021/09/23 15:38:54;;;;;;;2.33;2.10;;;36.40;35.80;;;;;;10118166;28;20036;-60
2021/09/23 15:43:45;;;;;;;3.25;2.40;;;35.80;35.90;;;;;;10082194;28;20045;-59
2021/09/23 15:48:36;;;;;;;2.47;1.88;;;35.90;35.90;;;;;;10095943;28;20506;-58
2021/09/23 15:53:27;;;;;;;2.75;1.83;;;35.80;35.80;;;;;;10112662;28;20041;-57
2021/09/23 15:58:17;;;;;;;4.60;2.13;;;35.50;35.80;;;;;;10113125;28;20440;-60
2021/09/23 16:03:08;;;;;;;3.30;2.75;;;35.30;35.90;;;;;;10107469;28;20056;-55
2021/09/23 16:08:02;;;;;;;4.15;2.28;;;34.90;35.70;;;;;;10106909;28;20048;-59
2021/09/23 16:12:53;;;;;;;3.28;2.00;;;34.20;36.10;;;;;;10119761;28;20416;-59
2021/09/23 16:17:44;;;;;;;3.88;1.95;;;32.80;36.40;;;;;;10116835;28;20522;-57
2021/09/23 16:22:35;;;;;;;4.13;1.55;;;28.80;40.90;;;;;;10110925;28;20036;-54
2021/09/23 16:27:25;;;;;;;3.75;2.35;;;26.70;43.10;;;;;;10120706;28;20487;-54
2021/09/23 16:32:17;;;;;;;3.25;2.22;;;25.60;44.00;;;;;;10123198;28;20398;-58
2021/09/23 16:37:08;;;;;;;7.05;2.05;;;25.10;44.30;;;;;;10120447;28;20032;-54
2021/09/23 16:41:59;;;;;;;4.10;2.38;;;24.90;44.60;;;;;;10130933;28;20025;-57
2021/09/23 16:46:50;;;;;;;4.68;2.53;;;24.70;44.70;;;;;;10115230;28;20446;-55
2021/09/23 16:51:43;;;;;;;3.78;1.95;;;24.30;45.40;;;;;;10121474;28;20024;-58
2021/09/23 16:56:33;;;;;;;4.85;2.20;;;24.10;46.00;;;;;;10126146;28;20129;-56
2021/09/23 17:01:24;;;;;;;5.93;2.60;;;23.80;46.50;;;;;;10124087;28;20036;-57
2021/09/23 17:06:15;;;;;;;3.35;2.15;;;23.60;47.10;;;;;;10121489;28;20037;-55
2021/09/23 17:11:05;;;;;;;3.30;2.58;;;23.40;47.50;;;;;;10108377;28;20031;-57
2021/09/23 17:15:56;;;;;;;6.80;2.50;;;23.30;48.00;;;;;;10116004;28;20025;-56
2021/09/23 17:20:47;;;;;;;4.22;2.60;;;23.10;48.50;;;;;;10095583;28;20519;-56
2021/09/23 17:25:39;;;;;;;4.32;2.83;;;23.00;49.00;;;;;;10122501;28;20040;-57
2021/09/23 17:30:29;;;;;;;5.70;2.95;;;22.80;49.50;;;;;;10118357;28;20501;-56
2021/09/23 17:35:20;;;;;;;5.85;3.17;;;22.60;50.00;;;;;;10120042;28;20043;-59
2021/09/23 17:40:11;;;;;;;5.32;2.95;;;22.50;50.50;;;;;;10098734;28;20028;-55
2021/09/23 17:45:04;;;;;;;6.78;3.30;;;22.40;50.90;;;;;;10115116;28;20071;-57
2021/09/23 17:49:55;;;;;;;6.45;3.25;;;22.30;51.40;;;;;;10113660;28;20513;-60
2021/09/23 17:54:45;;;;;;;5.10;3.20;;;22.30;51.90;;;;;;10121371;28;20044;-55
2021/09/23 17:59:37;;;;;;;7.40;4.07;;;22.20;52.10;;;;;;10115515;28;20515;-55
2021/09/23 18:04:27;;;;;;;6.53;3.30;;;22.10;52.70;;;;;;10124555;28;20522;-55
2021/09/23 18:09:18;;;;;;;7.60;3.85;;;22.00;53.10;;;;;;10121843;28;20067;-56
2021/09/23 18:14:09;;;;;;;9.13;3.88;;;21.90;53.60;;;;;;10119835;28;20114;-55
2021/09/23 18:19:06;;;;;;;7.85;3.85;;;21.90;54.00;;;;;;10114692;28;20526;-55
2021/09/23 18:24:00;;;;;;;7.97;4.38;;;21.70;54.40;;;;;;10117525;28;20041;-58
2021/09/23 18:28:50;;;;;;;5.68;3.80;;;21.70;55.10;;;;;;10109919;28;20021;-56
2021/09/23 18:33:41;;;;;;;5.28;3.13;;;21.50;55.60;;;;;;10100409;28;20041;-56
2021/09/23 18:38:32;;;;;;;5.65;2.88;;;21.30;56.30;;;;;;10119797;28;20094;-56
2021/09/23 18:43:22;;;;;;;4.80;3.25;;;21.30;56.60;;;;;;10122597;28;20032;-56
2021/09/23 18:48:14;;;;;;;8.88;3.80;;;21.20;57.30;;;;;;10115886;28;20067;-59
2021/09/23 18:53:04;;;;;;;7.13;3.60;;;21.10;57.80;;;;;;10125460;28;20521;-54
2021/09/23 18:57:55;;;;;;;4.75;2.80;;;21.00;58.00;;;;;;10114160;28;20293;-56
2021/09/23 19:02:46;;;;;;;10.10;4.00;;;21.00;58.30;;;;;;10115428;28;20032;-55
2021/09/23 19:07:36;;;;;;;7.38;3.65;;;21.00;58.60;;;;;;10095938;28;20051;-57
2021/09/23 19:12:27;;;;;;;7.40;3.95;;;20.80;59.10;;;;;;10110734;28;20056;-55
2021/09/23 19:17:18;;;;;;;5.78;3.58;;;20.70;59.80;;;;;;10114601;28;20029;-57
2021/09/23 19:22:10;;;;;;;4.15;3.00;;;20.60;60.20;;;;;;10108698;28;20090;-57
2021/09/23 19:27:01;;;;;;;4.93;3.15;;;20.50;60.60;;;;;;10118420;28;20032;-56
2021/09/23 19:31:52;;;;;;;4.68;3.13;;;20.60;60.80;;;;;;10118707;28;20039;-57
2021/09/23 19:36:43;;;;;;;5.20;3.42;;;20.50;61.00;;;;;;10120289;28;20088;-57
2021/09/23 19:41:36;;;;;;;7.78;3.78;;;20.40;61.40;;;;;;10115598;28;20392;-58
2021/09/23 19:46:27;;;;;;;3.92;3.17;;;20.30;61.60;;;;;;10112842;28;20548;-55
2021/09/23 19:51:18;;;;;;;4.30;2.50;;;20.20;61.70;;;;;;10111378;28;20025;-58
2021/09/23 19:56:08;;;;;;;6.15;2.70;;;20.30;62.10;;;;;;10117809;28;20053;-58
2021/09/23 20:00:59;;;;;;;5.22;2.53;;;20.20;61.90;;;;;;10114862;28;20025;-56
2021/09/23 20:05:50;;;;;;;3.17;2.38;;;20.20;62.10;;;;;;10115859;28;20037;-60
2021/09/23 20:10:40;;;;;;;4.65;2.45;;;20.10;62.20;;;;;;10114450;28;20137;-56
2021/09/23 20:15:32;;;;;;;3.17;2.00;;;20.10;62.40;;;;;;10115700;28;20048;-58
2021/09/23 20:20:22;;;;;;;3.53;2.60;;;20.10;62.60;;;;;;10103127;28;20101;-56
2021/09/23 20:25:15;;;;;;;3.22;2.60;;;20.00;62.70;;;;;;10095265;28;20448;-58
2021/09/23 20:30:08;;;;;;;8.18;2.88;;;20.00;63.00;;;;;;10097566;28;20017;-57
2021/09/23 20:34:58;;;;;;;3.55;2.25;;;19.90;63.10;;;;;;10107010;28;20028;-60
2021/09/23 20:39:49;;;;;;;4.03;2.70;;;19.90;63.20;;;;;;10113027;28;20029;-60
2021/09/23 20:44:40;;;;;;;4.13;3.42;;;19.80;63.40;;;;;;10112366;28;20465;-55
2021/09/23 20:49:33;;;;;;;5.00;2.78;;;19.80;63.60;;;;;;10112318;28;20529;-58
2021/09/23 20:54:24;;;;;;;7.22;3.83;;;19.70;63.90;;;;;;10117752;28;20510;-57
2021/09/23 20:59:21;;;;;;;3.92;2.70;;;19.70;64.20;;;;;;10111595;28;20056;-60
2021/09/23 21:04:12;;;;;;;4.65;2.65;;;19.70;64.40;;;;;;10114448;28;20064;-59
2021/09/23 21:09:04;;;;;;;9.00;4.47;;;19.60;64.60;;;;;;10102130;28;20035;-58
2021/09/23 21:13:54;;;;;;;7.53;3.80;;;19.40;65.00;;;;;;10117977;28;20051;-59
2021/09/23 21:18:45;;;;;;;6.93;3.25;;;19.40;65.20;;;;;;10118312;28;20534;-59
2021/09/23 21:23:37;;;;;;;5.25;3.00;;;19.30;65.40;;;;;;10114205;28;20425;-61
2021/09/23 21:28:28;;;;;;;6.78;3.88;;;19.20;65.70;;;;;;10125711;28;20028;-57
2021/09/23 21:33:19;;;;;;;8.60;4.80;;;19.20;65.90;;;;;;10118694;28;20060;-57
2021/09/23 21:38:10;;;;;;;7.40;3.67;;;19.10;66.20;;;;;;10101882;28;20365;-57
2021/09/23 21:43:02;;;;;;;4.50;3.40;;;19.00;66.60;;;;;;10121322;28;20068;-57
2021/09/23 21:47:52;;;;;;;5.78;3.78;;;19.00;66.80;;;;;;10121287;28;20024;-57
2021/09/23 21:52:44;;;;;;;6.63;3.55;;;18.90;67.30;;;;;;10112936;28;20032;-56
2021/09/23 21:57:34;;;;;;;5.78;3.92;;;18.80;67.40;;;;;;10116561;28;20338;-59
2021/09/23 22:02:25;;;;;;;5.70;4.05;;;18.80;67.80;;;;;;10120958;28;20524;-56
2021/09/23 22:07:16;;;;;;;7.22;4.18;;;18.70;68.10;;;;;;10116581;28;20082;-53
2021/09/23 22:12:08;;;;;;;7.90;4.68;;;18.70;68.40;;;;;;10119128;28;20048;-56
2021/09/23 22:16:59;;;;;;;12.95;6.30;;;18.50;68.80;;;;;;10119900;28;20017;-57
2021/09/23 22:21:49;;;;;;;8.13;5.00;;;18.50;69.20;;;;;;10116169;28;20083;-50
2021/09/23 22:26:40;;;;;;;7.20;4.50;;;18.40;69.40;;;;;;10111386;28;20028;-54
2021/09/23 22:31:31;;;;;;;8.18;4.03;;;18.40;69.70;;;;;;10125057;28;20034;-58
2021/09/23 22:36:21;;;;;;;7.68;4.80;;;18.30;70.20;;;;;;10122279;28;20093;-63
2021/09/23 22:41:12;;;;;;;10.20;4.97;;;18.30;70.30;;;;;;10119788;28;20025;-52
2021/09/23 22:46:03;;;;;;;6.85;4.68;;;18.20;70.80;;;;;;10122642;28;20475;-56
2021/09/23 22:50:53;;;;;;;6.50;4.35;;;18.30;71.10;;;;;;10116929;28;20031;-52
2021/09/23 22:55:44;;;;;;;8.40;4.32;;;18.10;71.60;;;;;;10124062;28;20045;-57
2021/09/23 23:00:35;;;;;;;9.63;4.57;;;18.00;71.90;;;;;;10116268;28;20038;-60
2021/09/23 23:05:26;;;;;;;8.60;4.53;;;17.90;72.60;;;;;;10123991;28;20603;-60
2021/09/23 23:10:16;;;;;;;7.18;4.55;;;17.80;73.10;;;;;;10122430;28;20027;-60
2021/09/23 23:15:08;;;;;;;6.53;3.97;;;17.80;73.40;;;;;;10116520;28;20028;-60
2021/09/23 23:19:59;;;;;;;8.18;4.88;;;17.80;73.60;;;;;;10110143;28;20037;-60
2021/09/23 23:24:50;;;;;;;7.97;4.93;;;17.70;73.90;;;;;;10113876;28;20037;-59
2021/09/23 23:29:40;;;;;;;6.40;3.90;;;17.60;74.10;;;;;;10114709;28;20035;-60
2021/09/23 23:34:31;;;;;;;9.93;4.65;;;17.40;74.40;;;;;;10112309;28;20029;-59
2021/09/23 23:39:22;;;;;;;7.10;3.92;;;17.50;74.80;;;;;;10110889;28;20029;-62
2021/09/23 23:44:13;;;;;;;8.23;4.47;;;17.50;75.20;;;;;;10114171;28;20052;-59
2021/09/23 23:49:05;;;;;;;6.10;4.05;;;17.50;75.10;;;;;;10115092;28;20035;-59
2021/09/23 23:53:56;;;;;;;7.97;4.63;;;17.40;75.30;;;;;;10109090;28;20460;-60
2021/09/23 23:58:47;;;;;;;8.05;4.28;;;17.30;75.60;;;;;;10109397;28;20037;-60
